sensor_id;sensor_type;location;lat;lon;timestamp;pressure;altitude;pressure_sealevel;temperature;humidity
20987;BME280;10652;50.306;8.570;2023-04-26T00:02:32;98082.78;;;2.48;74.29
20987;BME280;10652;50.306;8.570;2023-04-26T00:06:35;98077.94;;;2.24;75.12
20987;BME280;10652;50.306;8.570;2023-04-26T00:10:38;98086.44;;;2.35;76.43
20987;BME280;10652;50.306;8.570;2023-04-26T00:14:41;98074.25;;;2.40;76.27
20987;BME280;10652;50.306;8.570;2023-04-26T00:18:43;98080.94;;;2.57;76.31
20987;BME280;10652;50.306;8.570;2023-04-26T00:22:47;98078.19;;;2.67;75.85
20987;BME280;10652;50.306;8.570;2023-04-26T00:26:52;98088.50;;;2.70;75.60
20987;BME280;10652;50.306;8.570;2023-04-26T00:30:54;98083.31;;;2.69;74.78
20987;BME280;10652;50.306;8.570;2023-04-26T00:34:58;98090.50;;;2.53;75.09
20987;BME280;10652;50.306;8.570;2023-04-26T00:39:00;98078.78;;;2.26;74.50
20987;BME280;10652;50.306;8.570;2023-04-26T00:43:04;98079.94;;;2.02;76.21
20987;BME280;10652;50.306;8.570;2023-04-26T00:47:06;98073.97;;;1.96;76.68
20987;BME280;10652;50.306;8.570;2023-04-26T00:51:09;98076.66;;;1.90;77.35
20987;BME280;10652;50.306;8.570;2023-04-26T00:55:11;98081.09;;;1.79;77.16
20987;BME280;10652;50.306;8.570;2023-04-26T00:59:14;98082.16;;;1.63;77.65
20987;BME280;10652;50.306;8.570;2023-04-26T01:03:17;98080.53;;;1.52;78.70
20987;BME280;10652;50.306;8.570;2023-04-26T01:07:19;98075.34;;;1.52;79.46
20987;BME280;10652;50.306;8.570;2023-04-26T01:11:21;98080.59;;;1.49;79.85
20987;BME280;10652;50.306;8.570;2023-04-26T01:15:25;98072.88;;;1.43;80.41
20987;BME280;10652;50.306;8.570;2023-04-26T01:19:28;98064.47;;;1.22;81.02
20987;BME280;10652;50.306;8.570;2023-04-26T01:23:30;98061.06;;;1.17;82.26
20987;BME280;10652;50.306;8.570;2023-04-26T01:27:33;98072.25;;;1.20;83.07
20987;BME280;10652;50.306;8.570;2023-04-26T01:31:35;98061.75;;;1.32;83.44
20987;BME280;10652;50.306;8.570;2023-04-26T01:35:37;98067.59;;;1.54;83.59
20987;BME280;10652;50.306;8.570;2023-04-26T01:39:39;98066.63;;;1.63;82.80
20987;BME280;10652;50.306;8.570;2023-04-26T01:43:42;98066.59;;;1.66;82.52
20987;BME280;10652;50.306;8.570;2023-04-26T01:47:44;98069.97;;;1.71;82.56
20987;BME280;10652;50.306;8.570;2023-04-26T01:51:46;98069.13;;;1.72;81.72
20987;BME280;10652;50.306;8.570;2023-04-26T01:55:48;98080.28;;;1.74;81.34
20987;BME280;10652;50.306;8.570;2023-04-26T01:59:50;98077.03;;;1.56;81.03
20987;BME280;10652;50.306;8.570;2023-04-26T02:03:53;98085.66;;;1.55;81.45
20987;BME280;10652;50.306;8.570;2023-04-26T02:07:55;98081.44;;;1.48;81.13
20987;BME280;10652;50.306;8.570;2023-04-26T02:11:57;98084.84;;;1.50;81.28
20987;BME280;10652;50.306;8.570;2023-04-26T02:16:00;98085.84;;;1.37;80.57
20987;BME280;10652;50.306;8.570;2023-04-26T02:20:03;98087.53;;;1.41;81.33
20987;BME280;10652;50.306;8.570;2023-04-26T02:24:05;98083.22;;;1.43;81.14
20987;BME280;10652;50.306;8.570;2023-04-26T02:28:07;98090.22;;;1.34;80.91
20987;BME280;10652;50.306;8.570;2023-04-26T02:32:09;98085.84;;;1.37;80.72
20987;BME280;10652;50.306;8.570;2023-04-26T02:36:11;98088.69;;;1.13;80.40
20987;BME280;10652;50.306;8.570;2023-04-26T02:40:14;98085.28;;;1.08;81.28
20987;BME280;10652;50.306;8.570;2023-04-26T02:44:16;98080.03;;;1.16;82.46
20987;BME280;10652;50.306;8.570;2023-04-26T02:48:19;98091.34;;;1.08;80.66
20987;BME280;10652;50.306;8.570;2023-04-26T02:52:21;98081.19;;;0.86;81.42
20987;BME280;10652;50.306;8.570;2023-04-26T02:56:23;98071.78;;;0.73;82.26
20987;BME280;10652;50.306;8.570;2023-04-26T03:00:25;98082.88;;;0.87;83.44
20987;BME280;10652;50.306;8.570;2023-04-26T03:04:32;98084.47;;;1.00;82.56
20987;BME280;10652;50.306;8.570;2023-04-26T03:08:34;98078.44;;;1.04;82.98
20987;BME280;10652;50.306;8.570;2023-04-26T03:12:37;98084.47;;;1.01;82.56
20987;BME280;10652;50.306;8.570;2023-04-26T03:16:41;98084.59;;;0.88;81.92
20987;BME280;10652;50.306;8.570;2023-04-26T03:20:47;98073.41;;;0.83;82.68
20987;BME280;10652;50.306;8.570;2023-04-26T03:24:49;98072.59;;;0.81;82.42
20987;BME280;10652;50.306;8.570;2023-04-26T03:28:51;98059.63;;;0.84;82.69
20987;BME280;10652;50.306;8.570;2023-04-26T03:32:54;98070.84;;;0.83;82.32
20987;BME280;10652;50.306;8.570;2023-04-26T03:36:56;98072.66;;;0.72;82.20
20987;BME280;10652;50.306;8.570;2023-04-26T03:40:58;98070.94;;;0.71;82.58
20987;BME280;10652;50.306;8.570;2023-04-26T03:45:01;98075.22;;;0.75;82.71
20987;BME280;10652;50.306;8.570;2023-04-26T03:49:04;98074.28;;;0.82;83.82
20987;BME280;10652;50.306;8.570;2023-04-26T03:53:07;98076.84;;;0.88;82.81
20987;BME280;10652;50.306;8.570;2023-04-26T03:57:10;98072.66;;;0.72;81.79
20987;BME280;10652;50.306;8.570;2023-04-26T04:01:12;98075.28;;;0.67;81.98
20987;BME280;10652;50.306;8.570;2023-04-26T04:05:14;98073.59;;;0.61;83.06
20987;BME280;10652;50.306;8.570;2023-04-26T04:09:17;98077.91;;;0.62;82.77
20987;BME280;10652;50.306;8.570;2023-04-26T04:13:19;98077.94;;;0.55;82.72
20987;BME280;10652;50.306;8.570;2023-04-26T04:17:21;98073.59;;;0.60;83.21
20987;BME280;10652;50.306;8.570;2023-04-26T04:21:24;98079.63;;;0.60;82.32
20987;BME280;10652;50.306;8.570;2023-04-26T04:25:26;98089.94;;;0.66;83.26
20987;BME280;10652;50.306;8.570;2023-04-26T04:29:32;98089.94;;;0.63;83.44
20987;BME280;10652;50.306;8.570;2023-04-26T04:33:34;98090.78;;;0.65;84.25
20987;BME280;10652;50.306;8.570;2023-04-26T04:37:37;98095.88;;;0.79;83.71
20987;BME280;10652;50.306;8.570;2023-04-26T04:41:39;98101.78;;;0.95;83.11
20987;BME280;10652;50.306;8.570;2023-04-26T04:45:48;98103.44;;;1.02;82.46
20987;BME280;10652;50.306;8.570;2023-04-26T04:49:52;98110.69;;;1.58;82.56
20987;BME280;10652;50.306;8.570;2023-04-26T04:53:56;98109.63;;;3.53;82.41
20987;BME280;10652;50.306;8.570;2023-04-26T04:57:58;98101.91;;;5.79;73.47
20987;BME280;10652;50.306;8.570;2023-04-26T05:02:00;98105.63;;;7.17;64.47
20987;BME280;10652;50.306;8.570;2023-04-26T05:06:03;98117.28;;;5.88;57.22
20987;BME280;10652;50.306;8.570;2023-04-26T05:10:05;98118.16;;;4.47;60.16
20987;BME280;10652;50.306;8.570;2023-04-26T05:14:08;98121.09;;;3.89;62.75
20987;BME280;10652;50.306;8.570;2023-04-26T05:18:11;98122.97;;;3.79;64.85
20987;BME280;10652;50.306;8.570;2023-04-26T05:22:13;98120.47;;;3.75;65.48
20987;BME280;10652;50.306;8.570;2023-04-26T05:26:20;98125.66;;;3.75;66.70
20987;BME280;10652;50.306;8.570;2023-04-26T05:30:46;98127.47;;;3.70;66.29
20987;BME280;10652;50.306;8.570;2023-04-26T05:34:57;98131.25;;;6.49;69.58
20987;BME280;10652;50.306;8.570;2023-04-26T05:38:59;98127.41;;;10.72;57.89
20987;BME280;10652;50.306;8.570;2023-04-26T05:43:01;98127.72;;;10.07;50.76
20987;BME280;10652;50.306;8.570;2023-04-26T05:47:05;98137.69;;;10.76;51.86
20987;BME280;10652;50.306;8.570;2023-04-26T05:51:07;98126.22;;;12.85;48.78
20987;BME280;10652;50.306;8.570;2023-04-26T05:55:09;98123.31;;;13.21;44.43
20987;BME280;10652;50.306;8.570;2023-04-26T05:59:11;98139.88;;;10.67;45.80
20987;BME280;10652;50.306;8.570;2023-04-26T06:03:14;98146.94;;;8.80;47.97
20987;BME280;10652;50.306;8.570;2023-04-26T06:07:17;98150.88;;;7.44;52.36
20987;BME280;10652;50.306;8.570;2023-04-26T06:11:21;98157.06;;;6.58;53.91
20987;BME280;10652;50.306;8.570;2023-04-26T06:15:23;98155.34;;;6.26;56.05
20987;BME280;10652;50.306;8.570;2023-04-26T06:19:25;98160.84;;;6.16;57.75
20987;BME280;10652;50.306;8.570;2023-04-26T06:23:27;98160.28;;;6.04;58.38
20987;BME280;10652;50.306;8.570;2023-04-26T06:27:30;98159.34;;;6.07;59.47
20987;BME280;10652;50.306;8.570;2023-04-26T06:31:33;98169.53;;;6.16;59.55
20987;BME280;10652;50.306;8.570;2023-04-26T06:35:40;98166.06;;;6.48;60.76
20987;BME280;10652;50.306;8.570;2023-04-26T06:39:44;98160.59;;;8.64;58.28
20987;BME280;10652;50.306;8.570;2023-04-26T06:43:47;98161.28;;;8.46;55.39
20987;BME280;10652;50.306;8.570;2023-04-26T06:47:54;98162.25;;;10.36;54.78
20987;BME280;10652;50.306;8.570;2023-04-26T06:51:58;98145.28;;;13.67;47.33
20987;BME280;10652;50.306;8.570;2023-04-26T06:56:00;98152.28;;;13.68;42.83
20987;BME280;10652;50.306;8.570;2023-04-26T07:00:02;98142.41;;;14.01;41.05
20987;BME280;10652;50.306;8.570;2023-04-26T07:04:05;98141.72;;;13.68;40.66
20987;BME280;10652;50.306;8.570;2023-04-26T07:08:13;98152.22;;;12.08;39.97
20987;BME280;10652;50.306;8.570;2023-04-26T07:12:15;98157.72;;;10.21;43.79
20987;BME280;10652;50.306;8.570;2023-04-26T07:16:17;98171.34;;;9.03;47.54
20987;BME280;10652;50.306;8.570;2023-04-26T07:20:20;98170.38;;;8.83;46.70
20987;BME280;10652;50.306;8.570;2023-04-26T07:24:23;98166.22;;;8.31;46.10
20987;BME280;10652;50.306;8.570;2023-04-26T07:28:25;98159.25;;;8.05;47.14
20987;BME280;10652;50.306;8.570;2023-04-26T07:32:28;98162.66;;;7.82;47.81
20987;BME280;10652;50.306;8.570;2023-04-26T07:36:30;98158.59;;;7.73;48.57
20987;BME280;10652;50.306;8.570;2023-04-26T07:40:33;98163.19;;;7.67;47.82
20987;BME280;10652;50.306;8.570;2023-04-26T07:44:35;98164.41;;;7.57;47.86
20987;BME280;10652;50.306;8.570;2023-04-26T07:48:37;98158.88;;;7.40;47.39
20987;BME280;10652;50.306;8.570;2023-04-26T07:52:39;98158.94;;;7.10;47.96
20987;BME280;10652;50.306;8.570;2023-04-26T07:56:41;98152.53;;;7.20;48.71
20987;BME280;10652;50.306;8.570;2023-04-26T08:00:44;98151.09;;;7.38;48.02
20987;BME280;10652;50.306;8.570;2023-04-26T08:04:49;98158.09;;;7.36;48.04
20987;BME280;10652;50.306;8.570;2023-04-26T08:08:53;98164.56;;;7.52;48.54
20987;BME280;10652;50.306;8.570;2023-04-26T08:12:55;98161.31;;;7.70;48.01
20987;BME280;10652;50.306;8.570;2023-04-26T08:16:58;98157.88;;;7.95;47.75
20987;BME280;10652;50.306;8.570;2023-04-26T08:21:00;98158.38;;;8.04;46.92
20987;BME280;10652;50.306;8.570;2023-04-26T08:25:03;98150.63;;;8.27;47.00
20987;BME280;10652;50.306;8.570;2023-04-26T08:29:05;98163.16;;;8.43;46.24
20987;BME280;10652;50.306;8.570;2023-04-26T08:33:08;98159.31;;;8.28;45.91
20987;BME280;10652;50.306;8.570;2023-04-26T08:37:11;98157.69;;;8.25;45.79
20987;BME280;10652;50.306;8.570;2023-04-26T08:41:14;98155.00;;;8.27;46.25
20987;BME280;10652;50.306;8.570;2023-04-26T08:45:23;98160.41;;;8.46;45.78
20987;BME280;10652;50.306;8.570;2023-04-26T08:49:38;98153.19;;;8.52;45.15
20987;BME280;10652;50.306;8.570;2023-04-26T08:53:41;98151.78;;;8.44;44.17
20987;BME280;10652;50.306;8.570;2023-04-26T08:57:45;98150.84;;;8.45;44.86
20987;BME280;10652;50.306;8.570;2023-04-26T09:01:48;98148.41;;;8.63;44.91
20987;BME280;10652;50.306;8.570;2023-04-26T09:05:50;98155.34;;;8.88;44.45
20987;BME280;10652;50.306;8.570;2023-04-26T09:09:53;98142.09;;;8.91;45.12
20987;BME280;10652;50.306;8.570;2023-04-26T09:13:58;98136.63;;;8.97;43.83
20987;BME280;10652;50.306;8.570;2023-04-26T09:18:20;98133.78;;;9.03;43.15
20987;BME280;10652;50.306;8.570;2023-04-26T09:22:32;98133.97;;;9.20;42.30
20987;BME280;10652;50.306;8.570;2023-04-26T09:26:34;98140.53;;;9.08;41.86
20987;BME280;10652;50.306;8.570;2023-04-26T09:30:37;98139.22;;;9.20;42.95
20987;BME280;10652;50.306;8.570;2023-04-26T09:34:44;98144.16;;;9.70;43.17
20987;BME280;10652;50.306;8.570;2023-04-26T09:38:49;98139.59;;;9.95;41.99
20987;BME280;10652;50.306;8.570;2023-04-26T09:42:56;98132.25;;;10.03;41.57
20987;BME280;10652;50.306;8.570;2023-04-26T09:47:03;98132.66;;;9.94;40.62
20987;BME280;10652;50.306;8.570;2023-04-26T09:51:09;98131.94;;;9.69;41.48
20987;BME280;10652;50.306;8.570;2023-04-26T09:55:24;98122.50;;;9.65;41.02
20987;BME280;10652;50.306;8.570;2023-04-26T09:59:40;98126.84;;;9.86;41.45
20987;BME280;10652;50.306;8.570;2023-04-26T10:03:44;98129.22;;;10.12;41.72
20987;BME280;10652;50.306;8.570;2023-04-26T10:07:48;98127.88;;;10.22;41.41
20987;BME280;10652;50.306;8.570;2023-04-26T10:11:50;98134.19;;;10.38;41.24
20987;BME280;10652;50.306;8.570;2023-04-26T10:15:53;98130.50;;;10.22;41.35
20987;BME280;10652;50.306;8.570;2023-04-26T10:19:57;98121.22;;;10.15;41.44
20987;BME280;10652;50.306;8.570;2023-04-26T10:24:00;98121.72;;;10.23;39.97
20987;BME280;10652;50.306;8.570;2023-04-26T10:28:02;98120.13;;;10.39;39.73
20987;BME280;10652;50.306;8.570;2023-04-26T10:32:05;98116.84;;;10.34;39.34
20987;BME280;10652;50.306;8.570;2023-04-26T10:40:23;98111.47;;;10.56;40.22
20987;BME280;10652;50.306;8.570;2023-04-26T10:44:45;98096.56;;;10.75;39.72
20987;BME280;10652;50.306;8.570;2023-04-26T10:48:48;98104.78;;;10.86;39.23
20987;BME280;10652;50.306;8.570;2023-04-26T10:57:05;98086.13;;;11.10;38.16
20987;BME280;10652;50.306;8.570;2023-04-26T11:09:40;98086.13;;;11.28;38.28
20987;BME280;10652;50.306;8.570;2023-04-26T11:13:49;98086.00;;;11.49;36.15
20987;BME280;10652;50.306;8.570;2023-04-26T11:17:51;98077.09;;;11.34;36.21
20987;BME280;10652;50.306;8.570;2023-04-26T11:21:53;98074.69;;;11.29;36.70
20987;BME280;10652;50.306;8.570;2023-04-26T11:26:04;98072.00;;;11.65;37.58
20987;BME280;10652;50.306;8.570;2023-04-26T11:30:07;98073.13;;;11.94;36.51
20987;BME280;10652;50.306;8.570;2023-04-26T11:34:09;98072.59;;;11.88;35.35
20987;BME280;10652;50.306;8.570;2023-04-26T11:38:12;98065.16;;;11.78;36.50
20987;BME280;10652;50.306;8.570;2023-04-26T11:42:14;98059.69;;;12.16;37.25
20987;BME280;10652;50.306;8.570;2023-04-26T11:46:19;98069.88;;;12.39;36.41
20987;BME280;10652;50.306;8.570;2023-04-26T11:50:24;98054.69;;;12.44;36.01
20987;BME280;10652;50.306;8.570;2023-04-26T11:54:32;98055.41;;;12.13;35.74
20987;BME280;10652;50.306;8.570;2023-04-26T11:58:36;98057.25;;;12.29;36.48
20987;BME280;10652;50.306;8.570;2023-04-26T12:02:38;98052.09;;;12.58;36.31
20987;BME280;10652;50.306;8.570;2023-04-26T12:06:42;98053.66;;;12.62;35.07
20987;BME280;10652;50.306;8.570;2023-04-26T12:10:45;98057.56;;;12.40;35.72
20987;BME280;10652;50.306;8.570;2023-04-26T12:14:47;98057.97;;;12.48;36.49
20987;BME280;10652;50.306;8.570;2023-04-26T12:18:50;98050.81;;;12.50;34.58
20987;BME280;10652;50.306;8.570;2023-04-26T12:27:04;98045.06;;;12.10;35.76
20987;BME280;10652;50.306;8.570;2023-04-26T12:31:09;98047.19;;;12.19;35.75
20987;BME280;10652;50.306;8.570;2023-04-26T12:35:11;98048.63;;;12.09;35.69
20987;BME280;10652;50.306;8.570;2023-04-26T12:39:13;98040.41;;;12.15;35.74
20987;BME280;10652;50.306;8.570;2023-04-26T12:43:16;98037.34;;;12.23;36.27
20987;BME280;10652;50.306;8.570;2023-04-26T12:47:20;98040.66;;;12.26;35.88
20987;BME280;10652;50.306;8.570;2023-04-26T12:51:23;98036.78;;;12.34;35.63
20987;BME280;10652;50.306;8.570;2023-04-26T12:55:25;98041.38;;;11.97;35.79
20987;BME280;10652;50.306;8.570;2023-04-26T12:59:27;98033.00;;;11.56;35.67
20987;BME280;10652;50.306;8.570;2023-04-26T13:03:29;98039.34;;;11.52;37.70
20987;BME280;10652;50.306;8.570;2023-04-26T13:07:33;98034.69;;;12.07;37.98
20987;BME280;10652;50.306;8.570;2023-04-26T13:11:36;98043.88;;;12.49;37.16
20987;BME280;10652;50.306;8.570;2023-04-26T13:15:38;98038.16;;;12.72;37.04
20987;BME280;10652;50.306;8.570;2023-04-26T13:19:40;98046.19;;;12.71;35.37
20987;BME280;10652;50.306;8.570;2023-04-26T13:23:42;98040.56;;;12.61;35.69
20987;BME280;10652;50.306;8.570;2023-04-26T13:27:45;98037.06;;;12.60;35.93
20987;BME280;10652;50.306;8.570;2023-04-26T13:31:47;98040.81;;;12.56;36.08
20987;BME280;10652;50.306;8.570;2023-04-26T13:35:49;98045.66;;;12.48;35.78
20987;BME280;10652;50.306;8.570;2023-04-26T13:39:51;98052.22;;;12.57;35.78
20987;BME280;10652;50.306;8.570;2023-04-26T13:43:53;98051.78;;;12.64;35.29
20987;BME280;10652;50.306;8.570;2023-04-26T13:47:55;98041.13;;;12.82;35.67
20987;BME280;10652;50.306;8.570;2023-04-26T13:51:58;98038.16;;;13.03;35.19
20987;BME280;10652;50.306;8.570;2023-04-26T13:56:00;98040.00;;;13.17;35.82
20987;BME280;10652;50.306;8.570;2023-04-26T14:00:03;98042.72;;;13.16;35.48
20987;BME280;10652;50.306;8.570;2023-04-26T14:04:12;98030.00;;;13.08;34.92
20987;BME280;10652;50.306;8.570;2023-04-26T14:08:14;98032.72;;;13.06;35.44
20987;BME280;10652;50.306;8.570;2023-04-26T14:12:17;98027.25;;;13.09;35.32
20987;BME280;10652;50.306;8.570;2023-04-26T14:16:19;98030.19;;;13.19;35.98
20987;BME280;10652;50.306;8.570;2023-04-26T14:20:21;98018.34;;;12.96;35.66
20987;BME280;10652;50.306;8.570;2023-04-26T14:24:23;98017.84;;;12.43;35.55
20987;BME280;10652;50.306;8.570;2023-04-26T14:28:25;98013.53;;;12.09;35.74
20987;BME280;10652;50.306;8.570;2023-04-26T14:32:27;98007.16;;;11.97;36.29
20987;BME280;10652;50.306;8.570;2023-04-26T14:36:29;98006.59;;;12.23;36.70
20987;BME280;10652;50.306;8.570;2023-04-26T14:40:32;98011.31;;;12.50;36.53
20987;BME280;10652;50.306;8.570;2023-04-26T14:44:34;98001.97;;;12.60;35.42
20987;BME280;10652;50.306;8.570;2023-04-26T14:48:38;98005.97;;;12.67;35.37
20987;BME280;10652;50.306;8.570;2023-04-26T14:52:40;97999.91;;;12.81;35.40
20987;BME280;10652;50.306;8.570;2023-04-26T14:56:42;98003.09;;;13.01;35.84
20987;BME280;10652;50.306;8.570;2023-04-26T15:00:44;97996.97;;;13.01;35.81
20987;BME280;10652;50.306;8.570;2023-04-26T15:04:46;97996.50;;;12.94;35.88
20987;BME280;10652;50.306;8.570;2023-04-26T15:08:49;97992.91;;;12.95;35.95
20987;BME280;10652;50.306;8.570;2023-04-26T15:12:51;97996.31;;;12.97;35.38
20987;BME280;10652;50.306;8.570;2023-04-26T15:16:53;97987.00;;;12.76;35.48
20987;BME280;10652;50.306;8.570;2023-04-26T15:20:55;97987.66;;;12.64;34.22
20987;BME280;10652;50.306;8.570;2023-04-26T15:24:57;97986.34;;;12.57;35.04
20987;BME280;10652;50.306;8.570;2023-04-26T15:29:00;97982.91;;;12.55;34.25
20987;BME280;10652;50.306;8.570;2023-04-26T15:33:03;97976.19;;;12.49;35.02
20987;BME280;10652;50.306;8.570;2023-04-26T15:37:05;97982.56;;;12.45;34.86
20987;BME280;10652;50.306;8.570;2023-04-26T15:41:07;97980.66;;;12.49;35.38
20987;BME280;10652;50.306;8.570;2023-04-26T15:45:10;97984.69;;;12.54;35.47
20987;BME280;10652;50.306;8.570;2023-04-26T15:49:12;97988.03;;;12.58;35.02
20987;BME280;10652;50.306;8.570;2023-04-26T15:53:14;97982.81;;;12.25;34.81
20987;BME280;10652;50.306;8.570;2023-04-26T15:57:17;97988.03;;;12.09;35.07
20987;BME280;10652;50.306;8.570;2023-04-26T16:01:19;97983.56;;;12.11;35.44
20987;BME280;10652;50.306;8.570;2023-04-26T16:05:22;97987.13;;;12.10;35.20
20987;BME280;10652;50.306;8.570;2023-04-26T16:09:24;97985.53;;;12.23;35.47
20987;BME280;10652;50.306;8.570;2023-04-26T16:13:27;97984.59;;;12.24;35.64
20987;BME280;10652;50.306;8.570;2023-04-26T16:17:30;97985.59;;;12.06;35.51
20987;BME280;10652;50.306;8.570;2023-04-26T16:21:32;97986.88;;;11.82;36.19
20987;BME280;10652;50.306;8.570;2023-04-26T16:25:34;97976.72;;;11.76;36.22
20987;BME280;10652;50.306;8.570;2023-04-26T16:29:36;97973.53;;;11.69;36.50
20987;BME280;10652;50.306;8.570;2023-04-26T16:33:39;97972.03;;;11.48;36.18
20987;BME280;10652;50.306;8.570;2023-04-26T16:37:41;97966.53;;;11.35;36.57
20987;BME280;10652;50.306;8.570;2023-04-26T16:41:45;97968.41;;;11.33;36.48
20987;BME280;10652;50.306;8.570;2023-04-26T16:45:55;97967.34;;;11.20;36.92
20987;BME280;10652;50.306;8.570;2023-04-26T16:49:57;97971.19;;;11.13;37.23
20987;BME280;10652;50.306;8.570;2023-04-26T16:53:59;97977.09;;;11.00;37.09
20987;BME280;10652;50.306;8.570;2023-04-26T16:58:01;97982.44;;;10.98;36.94
20987;BME280;10652;50.306;8.570;2023-04-26T17:02:04;97979.13;;;10.95;36.87
20987;BME280;10652;50.306;8.570;2023-04-26T17:06:08;97986.16;;;10.94;37.43
20987;BME280;10652;50.306;8.570;2023-04-26T17:10:11;97987.03;;;10.95;37.18
20987;BME280;10652;50.306;8.570;2023-04-26T17:14:13;97998.50;;;10.92;37.48
20987;BME280;10652;50.306;8.570;2023-04-26T17:18:15;97988.91;;;10.74;37.79
20987;BME280;10652;50.306;8.570;2023-04-26T17:22:17;97993.63;;;10.67;38.17
20987;BME280;10652;50.306;8.570;2023-04-26T17:26:19;97998.03;;;10.67;37.86
20987;BME280;10652;50.306;8.570;2023-04-26T17:30:22;97992.88;;;10.64;37.59
20987;BME280;10652;50.306;8.570;2023-04-26T17:34:24;97994.88;;;10.59;38.42
20987;BME280;10652;50.306;8.570;2023-04-26T17:38:27;97994.28;;;10.54;38.71
20987;BME280;10652;50.306;8.570;2023-04-26T17:42:29;97997.34;;;10.44;39.19
20987;BME280;10652;50.306;8.570;2023-04-26T17:46:31;98003.16;;;10.32;39.61
20987;BME280;10652;50.306;8.570;2023-04-26T17:50:33;98004.84;;;10.15;39.73
20987;BME280;10652;50.306;8.570;2023-04-26T17:54:35;98016.03;;;9.99;40.32
20987;BME280;10652;50.306;8.570;2023-04-26T17:58:37;98014.97;;;9.85;40.60
20987;BME280;10652;50.306;8.570;2023-04-26T18:02:39;98017.53;;;9.66;40.98
20987;BME280;10652;50.306;8.570;2023-04-26T18:06:43;98010.91;;;9.37;42.10
20987;BME280;10652;50.306;8.570;2023-04-26T18:10:45;98013.66;;;9.14;43.23
20987;BME280;10652;50.306;8.570;2023-04-26T18:14:49;98013.78;;;9.11;43.90
20987;BME280;10652;50.306;8.570;2023-04-26T18:18:52;98016.13;;;8.97;44.60
20987;BME280;10652;50.306;8.570;2023-04-26T18:22:54;98025.78;;;8.75;44.77
20987;BME280;10652;50.306;8.570;2023-04-26T18:26:56;98024.06;;;8.74;45.23
20987;BME280;10652;50.306;8.570;2023-04-26T18:30:59;98026.00;;;8.68;45.31
20987;BME280;10652;50.306;8.570;2023-04-26T18:35:01;98042.22;;;8.56;45.58
20987;BME280;10652;50.306;8.570;2023-04-26T18:39:06;98042.56;;;8.47;46.31
20987;BME280;10652;50.306;8.570;2023-04-26T18:43:09;98040.00;;;8.46;46.38
20987;BME280;10652;50.306;8.570;2023-04-26T18:47:11;98041.66;;;8.48;46.32
20987;BME280;10652;50.306;8.570;2023-04-26T18:51:13;98043.03;;;8.35;46.46
20987;BME280;10652;50.306;8.570;2023-04-26T18:55:15;98055.38;;;8.32;46.93
20987;BME280;10652;50.306;8.570;2023-04-26T18:59:17;98046.91;;;8.25;47.49
20987;BME280;10652;50.306;8.570;2023-04-26T19:03:21;98056.88;;;8.14;48.20
20987;BME280;10652;50.306;8.570;2023-04-26T19:07:24;98054.94;;;7.96;49.20
20987;BME280;10652;50.306;8.570;2023-04-26T19:11:26;98063.69;;;7.71;49.94
20987;BME280;10652;50.306;8.570;2023-04-26T19:15:28;98071.44;;;7.73;50.79
20987;BME280;10652;50.306;8.570;2023-04-26T19:19:30;98075.69;;;7.52;50.88
20987;BME280;10652;50.306;8.570;2023-04-26T19:23:33;98067.88;;;7.26;51.78
20987;BME280;10652;50.306;8.570;2023-04-26T19:27:35;98069.88;;;7.18;52.83
20987;BME280;10652;50.306;8.570;2023-04-26T19:31:37;98071.81;;;7.13;52.94
20987;BME280;10652;50.306;8.570;2023-04-26T19:35:39;98084.44;;;6.99;53.81
20987;BME280;10652;50.306;8.570;2023-04-26T19:39:41;98082.44;;;6.80;53.99
20987;BME280;10652;50.306;8.570;2023-04-26T19:43:44;98085.63;;;6.88;54.81
20987;BME280;10652;50.306;8.570;2023-04-26T19:47:46;98084.44;;;6.99;54.75
20987;BME280;10652;50.306;8.570;2023-04-26T19:51:48;98088.41;;;6.84;54.36
20987;BME280;10652;50.306;8.570;2023-04-26T19:55:50;98096.59;;;6.44;54.86
20987;BME280;10652;50.306;8.570;2023-04-26T19:59:52;98104.09;;;6.24;56.52
20987;BME280;10652;50.306;8.570;2023-04-26T20:03:54;98098.75;;;6.30;56.71
20987;BME280;10652;50.306;8.570;2023-04-26T20:07:56;98099.88;;;6.20;56.22
20987;BME280;10652;50.306;8.570;2023-04-26T20:11:59;98093.31;;;6.07;55.96
20987;BME280;10652;50.306;8.570;2023-04-26T20:16:01;98098.16;;;5.89;57.25
20987;BME280;10652;50.306;8.570;2023-04-26T20:20:03;98102.22;;;5.67;57.89
20987;BME280;10652;50.306;8.570;2023-04-26T20:24:08;98107.09;;;5.79;58.62
20987;BME280;10652;50.306;8.570;2023-04-26T20:28:10;98107.84;;;5.84;58.66
20987;BME280;10652;50.306;8.570;2023-04-26T20:32:12;98109.19;;;5.67;58.73
20987;BME280;10652;50.306;8.570;2023-04-26T20:36:14;98101.25;;;5.37;59.63
20987;BME280;10652;50.306;8.570;2023-04-26T20:40:16;98115.59;;;5.20;59.95
20987;BME280;10652;50.306;8.570;2023-04-26T20:44:18;98107.69;;;5.24;61.35
20987;BME280;10652;50.306;8.570;2023-04-26T20:48:20;98111.69;;;5.37;60.94
20987;BME280;10652;50.306;8.570;2023-04-26T20:52:22;98108.16;;;5.40;60.72
20987;BME280;10652;50.306;8.570;2023-04-26T20:56:25;98113.38;;;5.40;60.70
20987;BME280;10652;50.306;8.570;2023-04-26T21:00:27;98115.88;;;5.43;60.64
20987;BME280;10652;50.306;8.570;2023-04-26T21:04:29;98116.38;;;5.23;60.50
20987;BME280;10652;50.306;8.570;2023-04-26T21:08:31;98126.84;;;5.22;60.92
20987;BME280;10652;50.306;8.570;2023-04-26T21:12:37;98125.16;;;5.19;61.70
20987;BME280;10652;50.306;8.570;2023-04-26T21:16:39;98134.72;;;5.19;61.66
20987;BME280;10652;50.306;8.570;2023-04-26T21:20:41;98134.06;;;5.09;61.68
20987;BME280;10652;50.306;8.570;2023-04-26T21:24:43;98126.44;;;5.03;62.11
20987;BME280;10652;50.306;8.570;2023-04-26T21:28:45;98126.00;;;4.84;62.49
20987;BME280;10652;50.306;8.570;2023-04-26T21:32:47;98123.69;;;4.72;63.42
20987;BME280;10652;50.306;8.570;2023-04-26T21:36:49;98130.06;;;4.57;63.72
20987;BME280;10652;50.306;8.570;2023-04-26T21:40:52;98128.06;;;4.68;64.72
20987;BME280;10652;50.306;8.570;2023-04-26T21:44:54;98128.88;;;4.72;63.90
20987;BME280;10652;50.306;8.570;2023-04-26T21:48:56;98130.56;;;4.73;64.21
20987;BME280;10652;50.306;8.570;2023-04-26T21:52:58;98129.56;;;4.80;64.30
20987;BME280;10652;50.306;8.570;2023-04-26T21:57:00;98129.31;;;4.91;63.78
20987;BME280;10652;50.306;8.570;2023-04-26T22:01:07;98130.16;;;4.91;62.94